sensor_id;sensor_type;location;lat;lon;timestamp;temperature;humidity
16485;DHT22;8353;47.856;12.344;2022-08-21T00:00:43;19.80;99.90
16485;DHT22;8353;47.856;12.344;2022-08-21T00:03:33;19.70;99.90
16485;DHT22;8353;47.856;12.344;2022-08-21T00:06:23;19.70;99.90
16485;DHT22;8353;47.856;12.344;2022-08-21T00:09:14;19.60;99.90
16485;DHT22;8353;47.856;12.344;2022-08-21T00:12:02;19.60;99.90
16485;DHT22;8353;47.856;12.344;2022-08-21T00:14:52;19.50;99.90
16485;DHT22;8353;47.856;12.344;2022-08-21T00:17:39;19.50;99.90
16485;DHT22;8353;47.856;12.344;2022-08-21T00:20:27;19.50;99.90
16485;DHT22;8353;47.856;12.344;2022-08-21T00:23:16;19.50;99.90
16485;DHT22;8353;47.856;12.344;2022-08-21T00:26:07;19.60;99.90
16485;DHT22;8353;47.856;12.344;2022-08-21T00:28:54;19.60;99.90
16485;DHT22;8353;47.856;12.344;2022-08-21T00:31:42;19.60;99.90
16485;DHT22;8353;47.856;12.344;2022-08-21T00:34:29;19.50;99.90
16485;DHT22;8353;47.856;12.344;2022-08-21T00:37:17;19.50;99.90
16485;DHT22;8353;47.856;12.344;2022-08-21T00:40:07;19.50;99.90
16485;DHT22;8353;47.856;12.344;2022-08-21T00:42:55;19.40;99.90
16485;DHT22;8353;47.856;12.344;2022-08-21T00:45:44;19.30;99.90
16485;DHT22;8353;47.856;12.344;2022-08-21T00:48:32;19.30;99.90
16485;DHT22;8353;47.856;12.344;2022-08-21T00:51:24;19.20;99.90
16485;DHT22;8353;47.856;12.344;2022-08-21T00:54:13;19.00;99.90
16485;DHT22;8353;47.856;12.344;2022-08-21T00:57:09;19.20;99.90
16485;DHT22;8353;47.856;12.344;2022-08-21T01:00:03;19.20;99.90
16485;DHT22;8353;47.856;12.344;2022-08-21T01:03:04;19.20;99.90
16485;DHT22;8353;47.856;12.344;2022-08-21T01:05:53;19.20;99.90
16485;DHT22;8353;47.856;12.344;2022-08-21T01:08:40;19.20;99.90
16485;DHT22;8353;47.856;12.344;2022-08-21T01:11:28;19.20;99.90
16485;DHT22;8353;47.856;12.344;2022-08-21T01:14:19;19.20;99.90
16485;DHT22;8353;47.856;12.344;2022-08-21T01:17:06;19.20;99.90
16485;DHT22;8353;47.856;12.344;2022-08-21T01:19:57;19.20;99.90
16485;DHT22;8353;47.856;12.344;2022-08-21T01:22:46;19.20;99.90
16485;DHT22;8353;47.856;12.344;2022-08-21T01:25:34;19.30;99.90
16485;DHT22;8353;47.856;12.344;2022-08-21T01:28:25;19.30;99.90
16485;DHT22;8353;47.856;12.344;2022-08-21T01:31:15;19.30;99.90
16485;DHT22;8353;47.856;12.344;2022-08-21T01:34:05;19.20;99.90
16485;DHT22;8353;47.856;12.344;2022-08-21T01:36:54;19.10;99.90
16485;DHT22;8353;47.856;12.344;2022-08-21T01:39:44;19.10;99.90
16485;DHT22;8353;47.856;12.344;2022-08-21T01:42:32;19.00;99.90
16485;DHT22;8353;47.856;12.344;2022-08-21T01:45:19;19.20;99.90
16485;DHT22;8353;47.856;12.344;2022-08-21T01:48:06;19.40;99.90
16485;DHT22;8353;47.856;12.344;2022-08-21T01:50:54;19.40;99.90
16485;DHT22;8353;47.856;12.344;2022-08-21T01:53:45;19.50;99.90
16485;DHT22;8353;47.856;12.344;2022-08-21T01:57:04;19.60;99.90
16485;DHT22;8353;47.856;12.344;2022-08-21T02:00:22;19.60;99.90
16485;DHT22;8353;47.856;12.344;2022-08-21T02:03:40;19.70;99.90
16485;DHT22;8353;47.856;12.344;2022-08-21T02:06:55;19.60;99.90
16485;DHT22;8353;47.856;12.344;2022-08-21T02:10:14;19.40;99.90
16485;DHT22;8353;47.856;12.344;2022-08-21T02:13:32;19.30;99.90
16485;DHT22;8353;47.856;12.344;2022-08-21T02:16:48;19.20;99.90
16485;DHT22;8353;47.856;12.344;2022-08-21T02:20:07;19.30;99.90
16485;DHT22;8353;47.856;12.344;2022-08-21T02:23:24;19.20;99.90
16485;DHT22;8353;47.856;12.344;2022-08-21T02:26:40;19.20;99.90
16485;DHT22;8353;47.856;12.344;2022-08-21T02:29:58;19.20;99.90
16485;DHT22;8353;47.856;12.344;2022-08-21T02:33:15;19.20;99.90
16485;DHT22;8353;47.856;12.344;2022-08-21T02:36:31;19.00;99.90
16485;DHT22;8353;47.856;12.344;2022-08-21T02:39:48;18.90;99.90
16485;DHT22;8353;47.856;12.344;2022-08-21T02:43:05;19.00;99.90
16485;DHT22;8353;47.856;12.344;2022-08-21T02:46:23;19.10;99.90
16485;DHT22;8353;47.856;12.344;2022-08-21T02:49:40;19.20;99.90
16485;DHT22;8353;47.856;12.344;2022-08-21T02:52:58;19.20;99.90
16485;DHT22;8353;47.856;12.344;2022-08-21T15:26:50;28.10;99.90
16485;DHT22;8353;47.856;12.344;2022-08-21T15:29:37;28.20;99.90
16485;DHT22;8353;47.856;12.344;2022-08-21T15:32:26;28.40;99.90
16485;DHT22;8353;47.856;12.344;2022-08-21T15:35:15;28.30;99.90
16485;DHT22;8353;47.856;12.344;2022-08-21T15:38:03;27.90;99.90
16485;DHT22;8353;47.856;12.344;2022-08-21T15:40:50;27.50;99.90
16485;DHT22;8353;47.856;12.344;2022-08-21T15:43:43;27.20;99.90
16485;DHT22;8353;47.856;12.344;2022-08-21T15:46:31;27.50;99.90
16485;DHT22;8353;47.856;12.344;2022-08-21T15:49:18;27.60;99.90
16485;DHT22;8353;47.856;12.344;2022-08-21T15:52:05;27.30;99.90
16485;DHT22;8353;47.856;12.344;2022-08-21T15:54:52;27.00;99.90
16485;DHT22;8353;47.856;12.344;2022-08-21T15:57:43;26.80;99.90
16485;DHT22;8353;47.856;12.344;2022-08-21T16:00:34;27.10;99.90
16485;DHT22;8353;47.856;12.344;2022-08-21T16:03:21;26.90;99.90
16485;DHT22;8353;47.856;12.344;2022-08-21T16:06:09;27.00;99.90
16485;DHT22;8353;47.856;12.344;2022-08-21T16:08:55;27.00;99.90
16485;DHT22;8353;47.856;12.344;2022-08-21T16:11:43;27.00;99.90
16485;DHT22;8353;47.856;12.344;2022-08-21T16:14:30;27.30;99.90
16485;DHT22;8353;47.856;12.344;2022-08-21T16:17:21;27.60;99.90
16485;DHT22;8353;47.856;12.344;2022-08-21T16:20:12;27.90;99.90
16485;DHT22;8353;47.856;12.344;2022-08-21T16:22:59;27.80;99.90
16485;DHT22;8353;47.856;12.344;2022-08-21T16:25:46;28.20;99.90
16485;DHT22;8353;47.856;12.344;2022-08-21T16:28:35;28.40;99.90
16485;DHT22;8353;47.856;12.344;2022-08-21T16:31:23;28.30;99.90
16485;DHT22;8353;47.856;12.344;2022-08-21T16:34:17;28.20;99.90
16485;DHT22;8353;47.856;12.344;2022-08-21T16:37:04;28.20;99.90
16485;DHT22;8353;47.856;12.344;2022-08-21T16:39:52;28.30;99.90
16485;DHT22;8353;47.856;12.344;2022-08-21T16:42:41;27.80;99.90
16485;DHT22;8353;47.856;12.344;2022-08-21T16:45:28;27.40;99.90
16485;DHT22;8353;47.856;12.344;2022-08-21T16:48:15;27.70;99.90
16485;DHT22;8353;47.856;12.344;2022-08-21T16:51:03;27.90;99.90
16485;DHT22;8353;47.856;12.344;2022-08-21T16:53:51;28.20;99.90
16485;DHT22;8353;47.856;12.344;2022-08-21T16:56:38;28.30;99.90
16485;DHT22;8353;47.856;12.344;2022-08-21T16:59:26;28.10;99.90
16485;DHT22;8353;47.856;12.344;2022-08-21T17:02:20;28.20;99.90
16485;DHT22;8353;47.856;12.344;2022-08-21T17:05:10;27.90;99.90
16485;DHT22;8353;47.856;12.344;2022-08-21T17:07:59;27.80;99.90
16485;DHT22;8353;47.856;12.344;2022-08-21T17:10:48;27.90;99.90
16485;DHT22;8353;47.856;12.344;2022-08-21T17:13:35;28.00;99.90
16485;DHT22;8353;47.856;12.344;2022-08-21T17:16:21;27.80;99.90
16485;DHT22;8353;47.856;12.344;2022-08-21T17:19:08;27.60;99.90
16485;DHT22;8353;47.856;12.344;2022-08-21T17:21:57;27.70;99.90
16485;DHT22;8353;47.856;12.344;2022-08-21T17:24:45;27.70;99.90
16485;DHT22;8353;47.856;12.344;2022-08-21T17:27:32;27.60;99.90
16485;DHT22;8353;47.856;12.344;2022-08-21T17:30:19;27.50;99.90
16485;DHT22;8353;47.856;12.344;2022-08-21T17:33:06;27.40;99.90
16485;DHT22;8353;47.856;12.344;2022-08-21T17:35:53;27.40;99.90
16485;DHT22;8353;47.856;12.344;2022-08-21T17:38:40;27.40;99.90
16485;DHT22;8353;47.856;12.344;2022-08-21T17:41:28;27.30;99.90
16485;DHT22;8353;47.856;12.344;2022-08-21T17:44:16;27.30;99.90
16485;DHT22;8353;47.856;12.344;2022-08-21T17:47:05;27.10;99.90
16485;DHT22;8353;47.856;12.344;2022-08-21T17:49:53;27.00;99.90
16485;DHT22;8353;47.856;12.344;2022-08-21T17:52:40;26.90;99.90
16485;DHT22;8353;47.856;12.344;2022-08-21T17:55:29;26.80;99.90
16485;DHT22;8353;47.856;12.344;2022-08-21T17:58:21;26.70;99.90
16485;DHT22;8353;47.856;12.344;2022-08-21T18:01:17;26.60;99.90
16485;DHT22;8353;47.856;12.344;2022-08-21T18:04:23;26.50;99.90
16485;DHT22;8353;47.856;12.344;2022-08-21T18:07:09;26.40;99.90
16485;DHT22;8353;47.856;12.344;2022-08-21T18:09:56;26.20;99.90
16485;DHT22;8353;47.856;12.344;2022-08-21T18:12:44;26.00;99.90
16485;DHT22;8353;47.856;12.344;2022-08-21T18:15:33;25.90;99.90
16485;DHT22;8353;47.856;12.344;2022-08-21T18:18:21;25.80;99.90
16485;DHT22;8353;47.856;12.344;2022-08-21T18:21:09;25.70;99.90
16485;DHT22;8353;47.856;12.344;2022-08-21T18:23:56;25.60;99.90
16485;DHT22;8353;47.856;12.344;2022-08-21T18:26:43;25.40;99.90
16485;DHT22;8353;47.856;12.344;2022-08-21T18:29:30;25.30;99.90
16485;DHT22;8353;47.856;12.344;2022-08-21T18:32:22;25.30;99.90
16485;DHT22;8353;47.856;12.344;2022-08-21T18:35:10;25.30;99.90
16485;DHT22;8353;47.856;12.344;2022-08-21T18:37:58;25.00;99.90
16485;DHT22;8353;47.856;12.344;2022-08-21T18:40:49;24.80;99.90
16485;DHT22;8353;47.856;12.344;2022-08-21T18:43:36;24.80;99.90
16485;DHT22;8353;47.856;12.344;2022-08-21T18:46:23;24.80;99.90
16485;DHT22;8353;47.856;12.344;2022-08-21T18:49:11;24.60;99.90
16485;DHT22;8353;47.856;12.344;2022-08-21T18:51:58;24.50;99.90
16485;DHT22;8353;47.856;12.344;2022-08-21T18:54:45;24.50;99.90
16485;DHT22;8353;47.856;12.344;2022-08-21T18:57:34;24.60;99.90
16485;DHT22;8353;47.856;12.344;2022-08-21T19:00:24;24.40;99.90
16485;DHT22;8353;47.856;12.344;2022-08-21T19:03:12;24.30;99.90
16485;DHT22;8353;47.856;12.344;2022-08-21T19:06:00;24.20;99.90
16485;DHT22;8353;47.856;12.344;2022-08-21T19:08:47;24.00;99.90
16485;DHT22;8353;47.856;12.344;2022-08-21T19:11:34;24.00;99.90
16485;DHT22;8353;47.856;12.344;2022-08-21T19:14:22;23.80;99.90
16485;DHT22;8353;47.856;12.344;2022-08-21T19:17:08;23.70;99.90
16485;DHT22;8353;47.856;12.344;2022-08-21T19:19:59;23.70;99.90
16485;DHT22;8353;47.856;12.344;2022-08-21T19:22:49;23.40;99.90
16485;DHT22;8353;47.856;12.344;2022-08-21T19:25:37;23.00;99.90
16485;DHT22;8353;47.856;12.344;2022-08-21T19:28:28;23.10;99.90
16485;DHT22;8353;47.856;12.344;2022-08-21T19:31:17;23.20;99.90
16485;DHT22;8353;47.856;12.344;2022-08-21T19:34:06;23.20;99.90
16485;DHT22;8353;47.856;12.344;2022-08-21T19:36:54;23.00;99.90
16485;DHT22;8353;47.856;12.344;2022-08-21T19:39:42;22.70;99.90
16485;DHT22;8353;47.856;12.344;2022-08-21T19:42:29;22.50;99.90
16485;DHT22;8353;47.856;12.344;2022-08-21T19:45:16;22.20;99.90
16485;DHT22;8353;47.856;12.344;2022-08-21T19:48:03;22.00;99.90
16485;DHT22;8353;47.856;12.344;2022-08-21T19:50:50;22.10;99.90
16485;DHT22;8353;47.856;12.344;2022-08-21T19:53:37;22.10;99.90
16485;DHT22;8353;47.856;12.344;2022-08-21T19:56:27;22.40;99.90
16485;DHT22;8353;47.856;12.344;2022-08-21T19:59:16;22.30;99.90
16485;DHT22;8353;47.856;12.344;2022-08-21T20:02:03;22.40;99.90
16485;DHT22;8353;47.856;12.344;2022-08-21T20:04:50;22.40;99.90
16485;DHT22;8353;47.856;12.344;2022-08-21T20:07:37;22.30;99.90
16485;DHT22;8353;47.856;12.344;2022-08-21T20:10:23;22.10;99.90
16485;DHT22;8353;47.856;12.344;2022-08-21T20:13:12;22.10;99.90
16485;DHT22;8353;47.856;12.344;2022-08-21T20:15:59;22.10;99.90
16485;DHT22;8353;47.856;12.344;2022-08-21T20:18:47;22.30;99.90
16485;DHT22;8353;47.856;12.344;2022-08-21T20:21:35;22.30;99.90
16485;DHT22;8353;47.856;12.344;2022-08-21T20:24:22;22.30;99.90
16485;DHT22;8353;47.856;12.344;2022-08-21T20:27:13;22.40;99.90
16485;DHT22;8353;47.856;12.344;2022-08-21T20:30:05;22.40;99.90
16485;DHT22;8353;47.856;12.344;2022-08-21T20:32:52;22.30;99.90
16485;DHT22;8353;47.856;12.344;2022-08-21T20:35:39;22.20;99.90
16485;DHT22;8353;47.856;12.344;2022-08-21T20:38:28;22.20;99.90
16485;DHT22;8353;47.856;12.344;2022-08-21T20:41:15;22.10;99.90
16485;DHT22;8353;47.856;12.344;2022-08-21T20:44:03;21.90;99.90
16485;DHT22;8353;47.856;12.344;2022-08-21T20:46:51;22.00;99.90
16485;DHT22;8353;47.856;12.344;2022-08-21T20:49:43;22.10;99.90
16485;DHT22;8353;47.856;12.344;2022-08-21T20:52:33;22.00;99.90
16485;DHT22;8353;47.856;12.344;2022-08-21T20:55:22;21.90;99.90
16485;DHT22;8353;47.856;12.344;2022-08-21T20:58:25;21.80;99.90
16485;DHT22;8353;47.856;12.344;2022-08-21T21:01:13;21.80;99.90
16485;DHT22;8353;47.856;12.344;2022-08-21T21:04:04;21.60;99.90
16485;DHT22;8353;47.856;12.344;2022-08-21T21:06:54;21.50;99.90
16485;DHT22;8353;47.856;12.344;2022-08-21T21:09:44;21.70;99.90
16485;DHT22;8353;47.856;12.344;2022-08-21T21:12:38;21.70;99.90
16485;DHT22;8353;47.856;12.344;2022-08-21T21:15:29;21.40;99.90
16485;DHT22;8353;47.856;12.344;2022-08-21T21:18:22;21.30;99.90
16485;DHT22;8353;47.856;12.344;2022-08-21T21:21:17;21.40;99.90
16485;DHT22;8353;47.856;12.344;2022-08-21T21:24:08;21.40;99.90
16485;DHT22;8353;47.856;12.344;2022-08-21T21:27:02;21.10;99.90
16485;DHT22;8353;47.856;12.344;2022-08-21T21:29:55;20.60;99.90
16485;DHT22;8353;47.856;12.344;2022-08-21T21:32:44;20.80;99.90
16485;DHT22;8353;47.856;12.344;2022-08-21T21:35:37;21.20;99.90
16485;DHT22;8353;47.856;12.344;2022-08-21T21:38:31;21.40;99.90
16485;DHT22;8353;47.856;12.344;2022-08-21T21:41:28;21.60;99.90
16485;DHT22;8353;47.856;12.344;2022-08-21T21:44:31;21.70;99.90
16485;DHT22;8353;47.856;12.344;2022-08-21T21:47:31;21.70;99.90
16485;DHT22;8353;47.856;12.344;2022-08-21T21:50:33;21.60;99.90
16485;DHT22;8353;47.856;12.344;2022-08-21T21:53:39;21.60;99.90
16485;DHT22;8353;47.856;12.344;2022-08-21T21:56:36;21.50;99.90
16485;DHT22;8353;47.856;12.344;2022-08-21T21:59:39;21.50;99.90
16485;DHT22;8353;47.856;12.344;2022-08-21T22:02:37;21.50;99.90
16485;DHT22;8353;47.856;12.344;2022-08-21T22:08:44;21.50;99.90
16485;DHT22;8353;47.856;12.344;2022-08-21T22:11:45;21.40;99.90
16485;DHT22;8353;47.856;12.344;2022-08-21T22:14:39;21.40;99.90
16485;DHT22;8353;47.856;12.344;2022-08-21T22:17:35;21.40;99.90
16485;DHT22;8353;47.856;12.344;2022-08-21T22:20:28;21.20;99.90
16485;DHT22;8353;47.856;12.344;2022-08-21T22:23:19;21.00;99.90
16485;DHT22;8353;47.856;12.344;2022-08-21T22:26:10;21.00;99.90
16485;DHT22;8353;47.856;12.344;2022-08-21T22:29:00;21.00;99.90
16485;DHT22;8353;47.856;12.344;2022-08-21T22:32:00;20.90;99.90
16485;DHT22;8353;47.856;12.344;2022-08-21T22:35:00;20.90;99.90
16485;DHT22;8353;47.856;12.344;2022-08-21T22:37:49;20.90;99.90
16485;DHT22;8353;47.856;12.344;2022-08-21T22:40:37;20.90;99.90
16485;DHT22;8353;47.856;12.344;2022-08-21T22:43:25;21.00;99.90
16485;DHT22;8353;47.856;12.344;2022-08-21T22:46:17;21.10;99.90
16485;DHT22;8353;47.856;12.344;2022-08-21T22:49:10;21.10;99.90
16485;DHT22;8353;47.856;12.344;2022-08-21T22:52:09;21.10;99.90
16485;DHT22;8353;47.856;12.344;2022-08-21T22:55:00;20.90;99.90
16485;DHT22;8353;47.856;12.344;2022-08-21T22:57:59;20.80;99.90
16485;DHT22;8353;47.856;12.344;2022-08-21T23:00:54;21.00;99.90
16485;DHT22;8353;47.856;12.344;2022-08-21T23:03:44;20.90;99.90
16485;DHT22;8353;47.856;12.344;2022-08-21T23:06:33;20.50;99.90
16485;DHT22;8353;47.856;12.344;2022-08-21T23:09:29;20.30;99.90
16485;DHT22;8353;47.856;12.344;2022-08-21T23:12:24;20.20;99.90
16485;DHT22;8353;47.856;12.344;2022-08-21T23:15:12;20.10;99.90
16485;DHT22;8353;47.856;12.344;2022-08-21T23:18:07;20.30;99.90
16485;DHT22;8353;47.856;12.344;2022-08-21T23:21:01;20.40;99.90
16485;DHT22;8353;47.856;12.344;2022-08-21T23:24:05;20.50;99.90
16485;DHT22;8353;47.856;12.344;2022-08-21T23:26:59;20.60;99.90
16485;DHT22;8353;47.856;12.344;2022-08-21T23:29:59;20.70;99.90
16485;DHT22;8353;47.856;12.344;2022-08-21T23:36:05;20.60;99.90
16485;DHT22;8353;47.856;12.344;2022-08-21T23:39:27;20.50;99.90
16485;DHT22;8353;47.856;12.344;2022-08-21T23:42:31;20.50;99.90
16485;DHT22;8353;47.856;12.344;2022-08-21T23:45:27;20.30;99.90
16485;DHT22;8353;47.856;12.344;2022-08-21T23:48:24;20.20;99.90
16485;DHT22;8353;47.856;12.344;2022-08-21T23:51:18;20.30;99.90
16485;DHT22;8353;47.856;12.344;2022-08-21T23:54:12;20.40;99.90
16485;DHT22;8353;47.856;12.344;2022-08-21T23:57:10;20.40;99.90
